Time;durP1;ratioP1;P1;durP2;ratioP2;P2;SDS_P1;SDS_P2;PMS_P1;PMS_P2;Temp;Humidity;BMP_temperature;BMP_pressure;BME280_temperature;BME280_humidity;BME280_pressure;Samples;Min_cycle;Max_cycle;Signal;HPM_P1;HPM_P2
2023/04/13 14:48:23;;;;;;;2.87;1.83;;;;;;;9.24;85.09;95966.34;4955890;27;20900;-70
2023/04/13 14:50:52;;;;;;;3.77;1.53;;;;;;;9.23;82.55;95965.50;5006122;28;20285;-71
2023/04/13 14:53:19;;;;;;;1.60;1.40;;;;;;;9.23;78.96;95962.88;5001107;28;20730;-73
2023/04/13 14:55:49;;;;;;;3.07;1.40;;;;;;;9.17;79.55;95957.63;5010016;28;20313;-70
2023/04/13 14:58:17;;;;;;;3.53;2.03;;;;;;;9.15;82.14;95955.16;5026418;28;20221;-69
2023/04/13 15:00:44;;;;;;;3.43;1.83;;;;;;;9.22;84.11;95958.59;5012879;28;20207;-69
2023/04/13 15:03:13;;;;;;;2.53;1.47;;;;;;;9.11;81.45;95957.44;4995136;28;20931;-71
2023/04/13 15:05:44;;;;;;;1.60;1.50;;;;;;;9.07;81.08;95950.91;5007474;28;20207;-72
2023/04/13 15:08:14;;;;;;;1.73;1.63;;;;;;;9.07;83.80;95947.47;5007218;28;20223;-73
2023/04/13 15:10:42;;;;;;;4.17;1.73;;;;;;;8.97;83.14;95945.22;5020187;28;20998;-71
2023/04/13 15:13:11;;;;;;;3.60;2.30;;;;;;;8.91;81.16;95944.22;5008145;28;20224;-70
2023/04/13 15:15:39;;;;;;;4.30;3.13;;;;;;;8.89;86.13;95953.34;5006311;28;20995;-71
2023/04/13 15:18:09;;;;;;;4.30;1.90;;;;;;;8.92;84.97;95958.22;5019182;28;20203;-71
2023/04/13 15:20:36;;;;;;;5.30;2.00;;;;;;;8.92;87.82;95963.50;4986428;28;20203;-70
2023/04/13 15:23:05;;;;;;;2.20;2.10;;;;;;;8.95;86.52;95965.75;4993027;28;20727;-71
2023/04/13 15:25:33;;;;;;;2.40;1.90;;;;;;;8.82;85.51;95951.53;5032465;28;20930;-71
2023/04/13 15:28:01;;;;;;;2.13;1.83;;;;;;;8.85;86.57;95960.06;5010849;28;20223;-71
2023/04/13 15:30:30;;;;;;;1.57;1.47;;;;;;;8.76;85.44;95964.72;5018209;28;20195;-72
2023/04/13 15:33:00;;;;;;;3.23;2.23;;;;;;;8.72;87.11;95969.63;5031938;28;20242;-71
2023/04/13 15:35:29;;;;;;;2.33;1.63;;;;;;;8.77;85.49;95961.91;4983476;28;20234;-73
2023/04/13 15:37:56;;;;;;;2.33;1.87;;;;;;;8.75;84.13;95971.84;5008128;28;20234;-69
2023/04/13 15:40:26;;;;;;;1.87;1.77;;;;;;;8.64;83.50;95960.06;5028866;28;21012;-70
2023/04/13 15:42:53;;;;;;;3.73;2.07;;;;;;;8.76;86.60;95967.38;5010132;28;20311;-70
2023/04/13 15:45:21;;;;;;;2.83;2.20;;;;;;;8.84;84.44;95961.88;5009554;28;20213;-70
2023/04/13 15:47:49;;;;;;;2.60;2.40;;;;;;;8.95;84.06;95955.19;5026783;28;21018;-69
2023/04/13 15:50:18;;;;;;;2.70;2.17;;;;;;;8.94;85.28;95933.25;4983598;28;20228;-72
2023/04/13 15:52:46;;;;;;;2.30;1.97;;;;;;;9.02;85.17;95934.06;5009612;28;20309;-70
2023/04/13 15:55:14;;;;;;;2.00;1.87;;;;;;;9.11;81.72;95938.09;5029815;28;20883;-71
2023/04/13 15:57:43;;;;;;;3.73;2.50;;;;;;;9.14;79.33;95942.97;5007827;28;20298;-71
2023/04/13 16:00:12;;;;;;;3.27;2.57;;;;;;;9.31;77.54;95961.06;5016659;28;20938;-71
2023/04/13 16:02:39;;;;;;;3.13;1.47;;;;;;;9.11;78.31;95964.53;5001996;28;20223;-69
2023/04/13 16:05:08;;;;;;;3.23;2.00;;;;;;;9.09;78.21;95969.19;4990374;28;20698;-71
2023/04/13 16:07:36;;;;;;;2.40;1.87;;;;;;;9.00;81.38;95971.22;4993910;28;20501;-71
2023/04/13 16:10:04;;;;;;;2.20;2.00;;;;;;;9.00;81.42;95976.50;5009043;28;20216;-74
2023/04/13 16:12:32;;;;;;;2.87;1.80;;;;;;;8.81;82.07;95980.78;4977494;28;22042;-72
2023/04/13 16:15:02;;;;;;;2.27;1.97;;;;;;;8.73;82.03;95983.63;5005836;28;20300;-71
2023/04/13 16:17:30;;;;;;;2.17;1.73;;;;;;;8.64;83.06;95985.63;4997251;28;20727;-70
2023/04/13 16:20:09;;;;;;;2.33;2.17;;;;;;;8.60;83.52;96000.25;5015405;28;20200;-70
2023/04/13 16:22:40;;;;;;;3.23;2.00;;;;;;;8.63;86.64;95998.03;4973691;28;20243;-70
2023/04/13 16:25:09;;;;;;;2.43;2.20;;;;;;;8.78;83.23;96007.59;4993734;28;20943;-70
2023/04/13 16:27:36;;;;;;;3.63;2.60;;;;;;;8.76;83.92;96006.97;5015001;28;20279;-70
2023/04/13 16:30:07;;;;;;;1.87;1.77;;;;;;;8.71;87.56;96014.69;4993859;28;21003;-71
2023/04/13 16:32:35;;;;;;;3.73;1.67;;;;;;;8.73;85.68;96007.38;4998592;28;21531;-70
2023/04/13 16:35:07;;;;;;;2.03;1.93;;;;;;;8.74;89.09;96015.13;5000220;28;21030;-72
2023/04/13 16:37:35;;;;;;;3.07;2.87;;;;;;;8.72;88.54;96016.31;4989192;28;20429;-71
2023/04/13 16:40:06;;;;;;;2.30;2.20;;;;;;;8.66;90.40;96013.47;4968945;28;20211;-71
2023/04/13 16:42:34;;;;;;;4.00;3.70;;;;;;;8.68;88.98;96019.38;4967762;28;21118;-71
2023/04/13 16:45:02;;;;;;;2.63;2.43;;;;;;;8.65;90.13;96014.50;4989020;28;20353;-72
2023/04/13 16:47:31;;;;;;;2.03;1.90;;;;;;;8.55;88.25;96011.44;4992113;28;20207;-71
2023/04/13 16:49:59;;;;;;;4.43;2.07;;;;;;;8.53;90.88;96014.25;5001809;28;20197;-70
2023/04/13 16:52:27;;;;;;;3.30;1.70;;;;;;;8.47;92.40;96015.03;4983983;28;20238;-72
2023/04/13 16:54:55;;;;;;;3.63;2.37;;;;;;;8.51;93.31;96018.09;4965372;28;20211;-72
2023/04/13 16:57:23;;;;;;;2.83;2.50;;;;;;;8.45;95.57;96009.13;5016676;28;20242;-71
2023/04/13 16:59:50;;;;;;;2.60;2.40;;;;;;;8.41;95.72;96010.56;4993084;28;20434;-72
2023/04/13 17:02:18;;;;;;;3.77;2.77;;;;;;;8.32;97.63;96011.72;5013539;28;20236;-72
2023/04/13 17:04:53;;;;;;;2.70;2.53;;;;;;;8.29;98.78;96014.75;4997163;28;20199;-71
2023/04/13 17:07:22;;;;;;;4.83;4.23;;;;;;;8.23;99.78;96013.75;4977850;28;20650;-73
2023/04/13 17:09:50;;;;;;;5.27;4.87;;;;;;;8.17;100.00;96009.25;4992083;28;20819;-73
2023/04/13 17:12:17;;;;;;;4.77;4.43;;;;;;;8.13;100.00;96005.38;4992716;28;20228;-73
2023/04/13 17:14:48;;;;;;;2.93;2.73;;;;;;;8.09;100.00;96008.41;4989280;28;20208;-73
2023/04/13 17:17:16;;;;;;;4.03;3.63;;;;;;;8.01;100.00;95998.03;5012796;28;20302;-71
2023/04/13 17:19:43;;;;;;;3.77;2.47;;;;;;;7.94;100.00;96005.91;4996552;28;20214;-61
2023/04/13 17:22:12;;;;;;;2.83;2.03;;;;;;;7.94;100.00;96016.44;4974782;28;21170;-62
2023/04/13 17:24:40;;;;;;;8.30;2.90;;;;;;;7.84;100.00;96005.44;4995027;28;20205;-61
2023/04/13 17:27:08;;;;;;;4.77;2.90;;;;;;;7.77;100.00;96013.34;4987473;28;20216;-60
2023/04/13 17:29:36;;;;;;;3.40;3.10;;;;;;;7.67;100.00;96016.34;5015002;28;20195;-72
2023/04/13 17:32:05;;;;;;;5.70;4.03;;;;;;;7.58;100.00;96035.97;4984889;28;20234;-70
2023/04/13 17:34:33;;;;;;;2.93;2.73;;;;;;;7.60;100.00;96038.38;5017883;28;20214;-70
2023/04/13 17:37:01;;;;;;;4.53;4.13;;;;;;;7.58;100.00;96046.50;5013426;28;20653;-70
2023/04/13 17:39:31;;;;;;;4.33;4.03;;;;;;;7.54;100.00;96045.22;4984981;28;20246;-72
2023/04/13 17:41:59;;;;;;;5.30;4.80;;;;;;;7.51;100.00;96041.19;4980228;28;20860;-70
2023/04/13 17:44:27;;;;;;;3.90;3.60;;;;;;;7.39;100.00;96040.09;5009459;28;20222;-70
2023/04/13 17:46:54;;;;;;;3.97;3.40;;;;;;;7.37;100.00;96049.97;4984524;28;20589;-69
2023/04/13 17:49:23;;;;;;;3.10;2.80;;;;;;;7.33;100.00;96051.38;5013563;28;20218;-70
2023/04/13 17:51:51;;;;;;;4.90;4.37;;;;;;;7.31;100.00;96048.94;4989987;28;20433;-70
2023/04/13 17:54:18;;;;;;;5.10;3.83;;;;;;;7.26;100.00;96056.59;4964473;28;20210;-71
2023/04/13 17:56:48;;;;;;;3.33;3.00;;;;;;;7.21;100.00;96062.44;4989645;28;20440;-70
2023/04/13 17:59:15;;;;;;;3.70;3.40;;;;;;;7.18;100.00;96060.19;4990818;28;20261;-72
2023/04/13 18:01:43;;;;;;;3.10;2.70;;;;;;;7.15;100.00;96060.56;5010881;28;21007;-71
2023/04/13 18:04:11;;;;;;;3.37;3.07;;;;;;;7.13;100.00;96057.31;4990745;28;20299;-69
2023/04/13 18:06:39;;;;;;;3.70;3.40;;;;;;;7.08;100.00;96060.50;4994636;28;20208;-70
2023/04/13 18:09:08;;;;;;;6.43;3.80;;;;;;;7.05;100.00;96065.34;4979931;28;20211;-70
2023/04/13 18:11:36;;;;;;;4.00;3.60;;;;;;;7.02;100.00;96065.72;5000074;28;20876;-69
2023/04/13 18:14:06;;;;;;;4.37;4.07;;;;;;;7.01;100.00;96061.44;4981193;28;20256;-71
2023/04/13 18:16:34;;;;;;;5.73;3.70;;;;;;;7.01;100.00;96054.38;5013074;28;20211;-70
2023/04/13 18:19:02;;;;;;;4.33;3.40;;;;;;;7.01;100.00;96056.16;4991118;28;20361;-71
2023/04/13 18:21:31;;;;;;;5.80;4.60;;;;;;;7.00;100.00;96065.06;5012917;28;20443;-72
2023/04/13 18:24:00;;;;;;;5.63;5.13;;;;;;;6.93;100.00;96060.56;4964342;28;20571;-72
2023/04/13 18:26:28;;;;;;;7.37;4.50;;;;;;;6.94;100.00;96058.75;5017212;28;20632;-73
2023/04/13 18:28:56;;;;;;;4.53;4.13;;;;;;;6.88;100.00;96060.31;4966051;28;20320;-70
2023/04/13 18:31:25;;;;;;;4.10;3.80;;;;;;;6.90;100.00;96065.41;5009325;28;20401;-71
2023/04/13 18:33:53;;;;;;;3.57;3.27;;;;;;;6.87;100.00;96052.63;4985477;28;20939;-72
2023/04/13 18:36:23;;;;;;;6.47;3.93;;;;;;;6.92;100.00;96058.94;5008654;28;20594;-71
2023/04/13 18:38:52;;;;;;;4.23;3.83;;;;;;;6.84;100.00;96063.53;4988844;28;20705;-71
2023/04/13 18:41:20;;;;;;;3.83;3.53;;;;;;;6.79;100.00;96053.56;4941558;28;20316;-72
2023/04/13 18:43:48;;;;;;;4.17;3.73;;;;;;;6.78;100.00;96055.34;5003324;28;20336;-74
2023/04/13 18:46:19;;;;;;;4.17;3.77;;;;;;;6.77;100.00;96058.19;5003844;28;20242;-70
2023/04/13 18:48:51;;;;;;;5.17;3.77;;;;;;;6.79;100.00;96064.09;5018787;28;20241;-71
2023/04/13 18:51:19;;;;;;;4.63;4.20;;;;;;;6.73;100.00;96057.75;5006538;28;20207;-69
2023/04/13 18:53:46;;;;;;;6.60;4.37;;;;;;;6.77;100.00;96068.72;5019414;28;20226;-68
2023/04/13 18:56:14;;;;;;;8.63;6.30;;;;;;;6.73;100.00;96067.47;4981193;28;20431;-72
2023/04/13 18:58:43;;;;;;;6.47;5.47;;;;;;;6.74;100.00;96072.53;5031439;28;20223;-70
2023/04/13 19:01:15;;;;;;;6.43;5.37;;;;;;;6.71;100.00;96069.47;5001718;28;20244;-70
2023/04/13 19:03:44;;;;;;;5.40;4.90;;;;;;;6.71;100.00;96056.31;5009928;28;20426;-72
2023/04/13 19:06:13;;;;;;;5.17;4.67;;;;;;;6.68;100.00;96068.03;4979253;28;20214;-68
2023/04/13 19:08:41;;;;;;;6.37;5.43;;;;;;;6.59;100.00;96071.78;5031227;28;20661;-69
2023/04/13 19:11:09;;;;;;;5.17;4.77;;;;;;;6.41;100.00;96059.03;4978920;28;21203;-69
2023/04/13 19:13:37;;;;;;;7.60;6.60;;;;;;;6.29;100.00;96062.16;5031415;28;20342;-71
2023/04/13 19:16:05;;;;;;;7.37;6.67;;;;;;;6.31;100.00;96075.94;4994057;28;20229;-70
2023/04/13 19:18:34;;;;;;;7.67;7.00;;;;;;;6.23;100.00;96070.75;5003261;28;20671;-69
2023/04/13 19:21:05;;;;;;;7.23;6.57;;;;;;;6.19;100.00;96072.94;5009655;28;20195;-66
2023/04/13 19:23:34;;;;;;;5.47;4.97;;;;;;;6.11;100.00;96062.53;5031586;28;20258;-69
2023/04/13 19:26:05;;;;;;;8.00;6.03;;;;;;;6.10;100.00;96068.78;5022920;28;20204;-70
2023/04/13 19:28:33;;;;;;;10.97;7.43;;;;;;;6.11;100.00;96064.34;4981318;28;20295;-69
2023/04/13 19:31:00;;;;;;;9.30;8.07;;;;;;;6.04;100.00;96065.06;5005738;28;20207;-72
2023/04/13 19:33:28;;;;;;;9.33;8.43;;;;;;;5.97;100.00;96064.16;5005811;28;20502;-71
2023/04/13 19:35:56;;;;;;;9.17;8.37;;;;;;;5.97;100.00;96065.94;5001449;28;20465;-69
2023/04/13 19:38:23;;;;;;;13.37;12.10;;;;;;;5.96;100.00;96057.25;5009917;28;20733;-70
2023/04/13 19:40:53;;;;;;;13.30;8.70;;;;;;;6.02;100.00;96064.44;5009424;28;20241;-70
2023/04/13 19:43:22;;;;;;;15.20;10.90;;;;;;;6.04;100.00;96064.25;4981091;28;20222;-69
2023/04/13 19:45:49;;;;;;;13.87;10.20;;;;;;;6.00;100.00;96052.44;5013030;28;20216;-71
2023/04/13 19:48:17;;;;;;;10.87;6.53;;;;;;;5.96;100.00;96052.00;5034122;28;20218;-73
2023/04/13 19:50:45;;;;;;;9.73;7.40;;;;;;;5.97;100.00;96050.16;4979890;28;21038;-71
2023/04/13 19:53:13;;;;;;;7.13;6.47;;;;;;;5.95;100.00;96042.47;5010298;28;20234;-70
2023/04/13 19:55:40;;;;;;;8.17;7.20;;;;;;;5.94;100.00;96043.47;5016919;28;20218;-68
2023/04/13 19:58:10;;;;;;;9.03;6.80;;;;;;;5.92;100.00;96045.47;4987938;28;20944;-69
2023/04/13 20:00:43;;;;;;;8.10;6.90;;;;;;;5.91;100.00;96043.84;5034339;28;20219;-70
2023/04/13 20:03:11;;;;;;;7.53;5.47;;;;;;;5.87;100.00;96055.69;5020680;28;20439;-70
2023/04/13 20:05:39;;;;;;;5.57;4.60;;;;;;;5.85;100.00;96065.59;5011754;28;20227;-70
2023/04/13 20:08:07;;;;;;;7.90;5.13;;;;;;;5.78;100.00;96087.34;5007079;28;23439;-70
2023/04/13 20:10:34;;;;;;;10.70;6.13;;;;;;;5.73;100.00;96081.81;5019314;28;20210;-70
2023/04/13 20:13:02;;;;;;;6.53;5.10;;;;;;;5.73;100.00;96087.06;5038542;28;20451;-70
2023/04/13 20:15:33;;;;;;;6.03;5.43;;;;;;;5.66;100.00;96091.41;4993382;28;20884;-71
2023/04/13 20:18:02;;;;;;;6.10;5.50;;;;;;;5.62;100.00;96090.94;5009383;28;20509;-70
2023/04/13 20:20:31;;;;;;;5.37;4.83;;;;;;;5.57;100.00;96080.16;5012777;28;20421;-70
2023/04/13 20:22:59;;;;;;;6.00;5.50;;;;;;;5.65;100.00;96085.31;5027795;28;20439;-70
2023/04/13 20:25:26;;;;;;;8.67;7.73;;;;;;;5.62;100.00;96087.53;5011292;28;20221;-71
2023/04/13 20:27:54;;;;;;;9.23;8.37;;;;;;;5.64;100.00;96083.69;4985243;28;22684;-68
2023/04/13 20:30:22;;;;;;;10.20;9.07;;;;;;;5.51;100.00;96075.63;4983455;28;20203;-70
2023/04/13 20:32:51;;;;;;;12.53;9.03;;;;;;;5.27;100.00;96066.97;5007727;28;20269;-69
2023/04/13 20:35:19;;;;;;;13.27;8.90;;;;;;;5.27;100.00;96058.28;5005231;28;20296;-69
2023/04/13 20:37:46;;;;;;;12.77;9.33;;;;;;;5.27;100.00;96060.91;5031351;28;20286;-70
2023/04/13 20:40:14;;;;;;;13.60;9.57;;;;;;;5.27;100.00;96051.22;5012742;28;20292;-70
2023/04/13 20:42:43;;;;;;;11.00;8.27;;;;;;;5.22;100.00;96050.94;5032602;28;20726;-69
2023/04/13 20:45:13;;;;;;;13.13;8.90;;;;;;;5.28;100.00;96049.41;4980179;28;22540;-69
2023/04/13 20:47:43;;;;;;;10.27;8.00;;;;;;;5.20;100.00;96042.41;5010120;28;20217;-71
2023/04/13 20:50:14;;;;;;;9.37;8.40;;;;;;;5.24;100.00;96048.16;5022011;28;20211;-68
2023/04/13 20:52:42;;;;;;;10.40;9.37;;;;;;;5.24;100.00;96040.25;5033955;28;20717;-71
2023/04/13 20:55:10;;;;;;;16.27;13.33;;;;;;;5.27;100.00;96053.03;5005416;28;21732;-72
2023/04/13 20:57:40;;;;;;;15.03;12.50;;;;;;;5.23;100.00;96052.56;5034484;28;20272;-71
2023/04/13 21:00:12;;;;;;;12.47;11.17;;;;;;;5.24;100.00;96048.94;4979546;28;21442;-71
2023/04/13 21:02:47;;;;;;;13.43;10.43;;;;;;;5.19;100.00;96048.66;5024783;28;20227;-70
2023/04/13 21:05:16;;;;;;;10.53;9.27;;;;;;;5.18;100.00;96050.50;5028765;28;20210;-69
2023/04/13 21:07:44;;;;;;;10.00;8.97;;;;;;;5.14;100.00;96049.22;5007521;28;20214;-70
2023/04/13 21:10:13;;;;;;;12.17;10.00;;;;;;;5.14;100.00;96037.88;5030810;28;21094;-69
2023/04/13 21:12:41;;;;;;;10.33;9.13;;;;;;;5.04;100.00;96043.38;5009040;28;20231;-70
2023/04/13 21:15:10;;;;;;;13.70;10.47;;;;;;;5.15;100.00;96047.41;5030193;28;20284;-69
2023/04/13 21:17:38;;;;;;;14.23;12.83;;;;;;;5.19;100.00;96065.25;4986465;28;20211;-71
2023/04/13 21:20:08;;;;;;;11.13;8.27;;;;;;;5.10;100.00;96073.38;5011185;28;20222;-69
2023/04/13 21:22:37;;;;;;;7.23;6.60;;;;;;;5.07;100.00;96064.84;5006270;28;20231;-71
2023/04/13 21:25:05;;;;;;;8.47;5.40;;;;;;;5.13;100.00;96070.38;5031069;28;20199;-71
2023/04/13 21:27:33;;;;;;;7.17;5.57;;;;;;;5.04;100.00;96073.09;5010041;28;20326;-71
2023/04/13 21:30:00;;;;;;;7.03;6.33;;;;;;;5.02;100.00;96069.00;5032153;28;20207;-70
2023/04/13 21:32:28;;;;;;;5.80;5.20;;;;;;;4.98;100.00;96071.16;4986999;28;20238;-71
2023/04/13 21:34:56;;;;;;;5.57;4.80;;;;;;;5.00;100.00;96063.94;5007097;28;20243;-69
2023/04/13 21:37:24;;;;;;;5.60;5.13;;;;;;;5.10;100.00;96076.00;5008448;28;20218;-69
2023/04/13 21:39:53;;;;;;;6.07;5.50;;;;;;;5.16;100.00;96073.50;5034049;28;20207;-71
2023/04/13 21:42:21;;;;;;;6.20;5.70;;;;;;;5.26;100.00;96070.59;5009961;28;20598;-69
2023/04/13 21:44:49;;;;;;;8.03;5.90;;;;;;;5.31;100.00;96070.06;5030917;28;20341;-71
2023/04/13 21:47:17;;;;;;;5.73;5.23;;;;;;;5.32;100.00;96072.53;4981370;28;20210;-69
2023/04/13 21:49:45;;;;;;;5.60;5.10;;;;;;;5.24;100.00;96077.03;5010169;28;20211;-70
2023/04/13 21:52:12;;;;;;;6.50;5.90;;;;;;;5.27;100.00;96066.97;5030381;28;20227;-70
2023/04/13 21:54:40;;;;;;;6.70;6.10;;;;;;;5.35;100.00;96077.44;5006207;28;20678;-71
2023/04/13 21:57:09;;;;;;;12.37;7.00;;;;;;;5.38;100.00;96063.09;5004985;28;20723;-70
2023/04/13 21:59:36;;;;;;;8.63;5.70;;;;;;;5.37;100.00;96061.47;5034299;28;20209;-70
2023/04/13 22:02:04;;;;;;;9.17;7.40;;;;;;;5.36;100.00;96071.19;5027159;28;20230;-69
2023/04/13 22:04:32;;;;;;;8.07;6.60;;;;;;;5.32;100.00;96059.41;4962344;28;20222;-72
2023/04/13 22:07:00;;;;;;;7.43;6.73;;;;;;;5.29;100.00;96051.84;5032927;28;20203;-69
2023/04/13 22:09:27;;;;;;;6.67;6.07;;;;;;;5.18;100.00;96053.13;5008101;28;20285;-69
2023/04/13 22:11:55;;;;;;;6.80;5.40;;;;;;;5.16;100.00;96052.47;5031531;28;20219;-69
2023/04/13 22:14:24;;;;;;;6.13;4.57;;;;;;;5.16;100.00;96047.22;5010100;28;20316;-70
2023/04/13 22:16:52;;;;;;;4.50;4.20;;;;;;;5.18;100.00;96053.13;5032286;28;20637;-71
2023/04/13 22:19:20;;;;;;;5.43;4.47;;;;;;;5.15;100.00;96050.03;4959008;28;20214;-70
2023/04/13 22:21:48;;;;;;;5.03;4.53;;;;;;;5.12;100.00;96037.25;5030993;28;20719;-71
2023/04/13 22:24:15;;;;;;;5.43;4.50;;;;;;;5.19;100.00;96048.66;5030869;28;20206;-71
2023/04/13 22:26:43;;;;;;;5.10;4.80;;;;;;;5.18;100.00;96045.25;5009364;28;20298;-72
2023/04/13 22:29:11;;;;;;;4.33;3.93;;;;;;;5.20;100.00;96040.63;5006041;28;21419;-69
2023/04/13 22:31:40;;;;;;;4.23;3.87;;;;;;;5.16;100.00;96041.16;5030808;28;20217;-69
2023/04/13 22:34:08;;;;;;;4.50;4.00;;;;;;;5.15;100.00;96035.09;4982957;28;20574;-68
2023/04/13 22:36:35;;;;;;;4.83;3.90;;;;;;;5.22;100.00;96038.63;5032911;28;20218;-68
2023/04/13 22:39:03;;;;;;;4.30;3.90;;;;;;;5.28;100.00;96039.72;5028571;28;20446;-69
2023/04/13 22:41:31;;;;;;;4.50;3.50;;;;;;;5.28;100.00;96041.53;5008800;28;20227;-69
2023/04/13 22:43:58;;;;;;;5.30;3.77;;;;;;;5.26;100.00;96038.28;5008786;28;20655;-68
2023/04/13 22:46:26;;;;;;;4.23;3.70;;;;;;;5.29;100.00;96028.22;5033035;28;20241;-68
2023/04/13 22:48:55;;;;;;;5.73;3.87;;;;;;;5.28;100.00;96029.22;5031260;28;21194;-68
2023/04/13 22:51:22;;;;;;;3.63;3.33;;;;;;;5.29;100.00;96030.03;4982984;28;20616;-69
2023/04/13 22:53:50;;;;;;;3.67;3.33;;;;;;;5.28;100.00;96025.78;5032051;28;20753;-70
2023/04/13 22:56:18;;;;;;;3.20;3.00;;;;;;;5.28;100.00;96025.78;5003664;28;20306;-68
2023/04/13 22:58:46;;;;;;;6.87;3.80;;;;;;;5.32;100.00;96027.88;5019207;28;20199;-69
2023/04/13 23:01:14;;;;;;;5.17;3.23;;;;;;;5.32;100.00;96037.56;5020167;28;20222;-68
2023/04/13 23:03:42;;;;;;;4.93;3.70;;;;;;;5.24;100.00;96038.44;5027733;28;20219;-69
2023/04/13 23:06:11;;;;;;;5.47;3.40;;;;;;;5.24;100.00;96033.19;4982079;28;20226;-68
2023/04/13 23:08:38;;;;;;;3.50;3.17;;;;;;;5.29;100.00;96030.03;5034174;28;20203;-70
2023/04/13 23:11:07;;;;;;;4.87;3.30;;;;;;;5.30;100.00;96032.50;5033659;28;20230;-68
2023/04/13 23:13:35;;;;;;;3.40;3.10;;;;;;;5.28;100.00;96023.16;5010189;28;20343;-68
2023/04/13 23:16:04;;;;;;;3.33;2.83;;;;;;;5.34;100.00;96032.94;5008407;28;20206;-68
2023/04/13 23:18:32;;;;;;;4.47;3.40;;;;;;;5.35;100.00;96035.41;5038791;28;20207;-69
2023/04/13 23:21:08;;;;;;;5.17;4.67;;;;;;;5.24;100.00;96033.19;5036719;28;20731;-69
2023/04/13 23:23:37;;;;;;;8.53;4.83;;;;;;;5.23;100.00;96042.06;4981797;28;20233;-69
2023/04/13 23:26:06;;;;;;;5.33;4.70;;;;;;;5.16;100.00;96034.09;5037088;28;20480;-69
2023/04/13 23:28:34;;;;;;;7.83;5.20;;;;;;;5.24;100.00;96050.78;5024065;28;20215;-69
2023/04/13 23:31:05;;;;;;;6.70;5.23;;;;;;;5.28;100.00;96049.41;5008378;28;20767;-70
2023/04/13 23:33:33;;;;;;;5.20;4.70;;;;;;;5.18;100.00;96052.28;5037191;28;20683;-69
2023/04/13 23:36:01;;;;;;;7.40;4.83;;;;;;;5.11;100.00;96056.63;5037272;28;20487;-68
2023/04/13 23:38:29;;;;;;;6.23;4.50;;;;;;;5.10;100.00;96058.41;4983703;28;20368;-70
2023/04/13 23:40:58;;;;;;;5.80;4.87;;;;;;;5.14;100.00;96043.13;5036906;28;20247;-68
2023/04/13 23:43:26;;;;;;;4.00;3.70;;;;;;;5.18;100.00;96047.88;5031513;28;20532;-69
2023/04/13 23:45:54;;;;;;;4.13;3.67;;;;;;;5.22;100.00;96046.50;5010272;28;20752;-68
2023/04/13 23:48:23;;;;;;;3.93;3.63;;;;;;;5.20;100.00;96047.66;5012839;28;20320;-69
2023/04/13 23:50:51;;;;;;;7.63;5.07;;;;;;;5.07;100.00;96046.47;5034406;28;20199;-69
2023/04/13 23:53:19;;;;;;;5.07;4.57;;;;;;;5.08;100.00;96047.28;4984700;28;20681;-70
2023/04/13 23:55:47;;;;;;;5.23;4.73;;;;;;;5.00;100.00;96042.94;5034812;28;20535;-67
2023/04/13 23:58:16;;;;;;;6.00;5.07;;;;;;;4.92;100.00;96038.56;5030797;28;20203;-68
